createdAt,value
2022-12-11T00:00:24.659Z,90.20
2022-12-11T00:02:51.829Z,84.37
2022-12-11T00:05:18.866Z,95.53
2022-12-11T00:07:45.830Z,101.23
2022-12-11T00:10:12.728Z,93.17
2022-12-11T00:12:39.776Z,94.60
2022-12-11T00:15:07.900Z,84.33
2022-12-11T00:17:35.316Z,85.47
2022-12-11T00:20:02.316Z,88.87
2022-12-11T00:22:30.890Z,95.10
2022-12-11T00:24:57.848Z,102.90
2022-12-11T00:27:24.794Z,86.70
2022-12-11T00:29:51.773Z,96.77
2022-12-11T00:32:18.982Z,94.00
2022-12-11T00:34:46.063Z,103.70
2022-12-11T00:37:13.162Z,104.73
2022-12-11T00:39:40.169Z,112.53
2022-12-11T00:42:08.193Z,119.90
2022-12-11T00:44:35.492Z,115.77
2022-12-11T00:47:02.785Z,115.20
2022-12-11T00:49:29.937Z,108.67
2022-12-11T00:51:56.898Z,101.80
2022-12-11T00:54:23.837Z,98.27
2022-12-11T00:56:50.986Z,99.93
2022-12-11T00:59:17.919Z,90.23
2022-12-11T01:01:44.968Z,93.43
2022-12-11T01:04:11.967Z,94.43
2022-12-11T01:06:39.781Z,79.00
2022-12-11T01:09:26.327Z,93.70
2022-12-11T01:11:53.274Z,84.73
2022-12-11T01:14:20.260Z,73.33
2022-12-11T01:16:47.253Z,78.67
2022-12-11T01:19:14.248Z,72.60
2022-12-11T01:21:41.284Z,80.47
2022-12-11T01:24:08.328Z,91.37
2022-12-11T01:26:35.475Z,86.73
2022-12-11T01:29:02.612Z,82.50
2022-12-11T01:31:30.100Z,87.23
2022-12-11T01:34:00.446Z,72.33
2022-12-11T01:36:27.490Z,75.03
2022-12-11T01:38:54.720Z,76.80
2022-12-11T01:41:21.739Z,81.17
2022-12-11T01:44:28.326Z,85.50
2022-12-11T01:46:55.299Z,97.67
2022-12-11T01:49:25.463Z,87.40
2022-12-11T01:52:15.799Z,100.43
2022-12-11T01:54:43.685Z,93.93
2022-12-11T01:57:13.454Z,93.87
2022-12-11T01:59:44.762Z,89.50
2022-12-11T02:02:19.373Z,87.33
2022-12-11T02:04:47.513Z,90.00
2022-12-11T02:07:14.511Z,108.40
2022-12-11T02:09:44.011Z,115.13
2022-12-11T02:12:26.999Z,116.47
2022-12-11T02:15:29.110Z,116.63
2022-12-11T02:18:32.598Z,129.50
2022-12-11T02:21:21.605Z,116.17
2022-12-11T02:24:05.002Z,121.13
2022-12-11T02:27:02.686Z,108.93
2022-12-11T02:29:38.425Z,114.67
2022-12-11T02:32:19.819Z,109.37
2022-12-11T02:35:13.488Z,106.80
2022-12-11T02:37:43.909Z,103.40
2022-12-11T02:40:15.483Z,99.37
2022-12-11T02:42:44.556Z,93.07
2022-12-11T02:45:13.794Z,105.10
2022-12-11T02:47:43.597Z,96.20
2022-12-11T02:50:15.428Z,103.50
2022-12-11T02:52:43.198Z,120.47
2022-12-11T02:55:12.888Z,110.97
2022-12-11T02:57:50.423Z,110.67
2022-12-11T03:00:18.631Z,114.33
2022-12-11T03:02:46.233Z,112.70
2022-12-11T03:05:14.544Z,110.13
2022-12-11T03:07:43.415Z,117.60
2022-12-11T03:10:14.704Z,102.20
2022-12-11T03:12:50.487Z,114.50
2022-12-11T03:15:24.252Z,107.47
2022-12-11T03:18:10.224Z,99.83
2022-12-11T03:21:06.151Z,99.97
2022-12-11T03:23:54.458Z,88.30
2022-12-11T03:26:22.047Z,84.90
2022-12-11T03:28:59.725Z,102.40
2022-12-11T03:31:46.169Z,86.23
2022-12-11T03:34:28.342Z,95.97
2022-12-11T03:36:58.357Z,103.63
2022-12-11T03:39:31.449Z,92.63
2022-12-11T03:42:02.932Z,95.00
2022-12-11T03:44:32.376Z,101.73
2022-12-11T03:47:01.727Z,95.70
2022-12-11T03:49:32.462Z,86.47
2022-12-11T03:52:01.471Z,81.53
2022-12-11T03:54:29.293Z,89.30
2022-12-11T03:57:02.816Z,84.50
2022-12-11T03:59:29.786Z,74.53
2022-12-11T04:01:56.849Z,75.70
2022-12-11T04:04:23.832Z,80.40
2022-12-11T04:06:50.804Z,83.07
2022-12-11T04:09:17.759Z,80.87
2022-12-11T04:11:44.633Z,79.07
2022-12-11T04:14:32.693Z,89.93
2022-12-11T04:17:00.610Z,94.90
2022-12-11T04:19:46.214Z,88.80
2022-12-11T04:22:34.668Z,85.97
2022-12-11T04:25:02.658Z,90.10
2022-12-11T04:27:48.396Z,89.77
2022-12-11T04:30:28.047Z,82.27
2022-12-11T04:32:58.608Z,79.73
2022-12-11T04:35:25.511Z,80.83
2022-12-11T04:37:53.391Z,93.87
2022-12-11T04:40:20.746Z,86.23
2022-12-11T04:42:48.155Z,96.50
2022-12-11T04:45:15.596Z,92.77
2022-12-11T04:47:42.484Z,95.17
2022-12-11T04:50:12.040Z,115.47
2022-12-11T04:52:39.007Z,104.33
2022-12-11T04:55:07.105Z,103.50
2022-12-11T04:57:34.347Z,98.73
2022-12-11T05:00:02.058Z,92.87
2022-12-11T05:02:29.094Z,111.57
2022-12-11T05:04:56.516Z,109.13
2022-12-11T05:07:23.433Z,114.30
2022-12-11T05:09:50.423Z,124.03
2022-12-11T05:12:17.541Z,121.27
2022-12-11T05:14:44.755Z,128.80
2022-12-11T05:17:11.761Z,127.03
2022-12-11T05:19:38.689Z,123.30
2022-12-11T05:22:05.612Z,136.87
2022-12-11T05:24:32.485Z,135.70
2022-12-11T05:26:59.646Z,122.97
2022-12-11T05:29:26.802Z,120.97
2022-12-11T05:31:53.910Z,127.03
2022-12-11T05:34:20.964Z,117.63
2022-12-11T05:36:47.854Z,124.47
2022-12-11T05:39:14.761Z,133.77
2022-12-11T05:41:43.164Z,134.93
2022-12-11T05:44:13.064Z,129.13
2022-12-11T05:46:40.960Z,118.07
2022-12-11T05:49:08.157Z,126.40
2022-12-11T05:51:35.420Z,133.77
2022-12-11T05:54:02.978Z,132.27
2022-12-11T05:56:32.272Z,132.83
2022-12-11T05:59:01.186Z,136.83
2022-12-11T06:01:43.137Z,122.40
2022-12-11T06:04:12.014Z,123.70
2022-12-11T06:06:40.688Z,137.57
2022-12-11T06:09:07.894Z,144.60
2022-12-11T06:11:35.966Z,129.60
2022-12-11T06:14:04.036Z,140.30
2022-12-11T06:16:31.419Z,138.90
2022-12-11T06:18:59.003Z,130.93
2022-12-11T06:21:31.349Z,124.43
2022-12-11T06:24:00.019Z,135.90
2022-12-11T06:26:28.541Z,125.30
2022-12-11T06:28:55.466Z,123.13
2022-12-11T06:31:22.986Z,121.50
2022-12-11T06:33:49.954Z,123.97
2022-12-11T06:36:19.731Z,116.60
2022-12-11T06:38:47.833Z,120.90
2022-12-11T06:41:15.222Z,113.30
2022-12-11T06:43:43.122Z,120.10
2022-12-11T06:46:16.874Z,106.20
2022-12-11T06:48:44.816Z,107.57
2022-12-11T06:51:14.461Z,104.93
2022-12-11T06:53:42.006Z,107.03
2022-12-11T06:56:12.390Z,106.93
2022-12-11T06:58:40.370Z,100.73
2022-12-11T07:01:16.365Z,102.63
2022-12-11T07:03:43.703Z,109.57
2022-12-11T07:06:11.064Z,97.73
2022-12-11T07:08:37.992Z,101.33
2022-12-11T07:11:10.777Z,96.60
2022-12-11T07:13:37.809Z,104.87
2022-12-11T07:16:13.105Z,97.00
2022-12-11T07:18:43.884Z,92.30
2022-12-11T07:21:12.978Z,94.67
2022-12-11T07:23:40.578Z,83.40
2022-12-11T07:26:13.921Z,88.07
2022-12-11T07:28:41.699Z,87.43
2022-12-11T07:31:25.077Z,79.67
2022-12-11T07:34:02.618Z,96.30
2022-12-11T07:36:30.388Z,90.10
2022-12-11T07:38:57.446Z,85.43
2022-12-11T07:41:24.652Z,81.97
2022-12-11T07:43:51.525Z,78.20
2022-12-11T07:46:22.067Z,88.63
2022-12-11T07:48:49.317Z,87.03
2022-12-11T07:51:30.843Z,71.50
2022-12-11T07:54:03.754Z,59.13
2022-12-11T07:56:42.952Z,67.33
2022-12-11T07:59:11.356Z,64.37
2022-12-11T08:01:39.951Z,69.43
2022-12-11T08:04:09.886Z,75.13
2022-12-11T08:06:39.429Z,70.50
2022-12-11T08:09:08.689Z,67.27
2022-12-11T08:11:35.987Z,72.33
2022-12-11T08:14:03.509Z,79.67
2022-12-11T08:16:30.546Z,61.73
2022-12-11T08:18:58.485Z,70.53
2022-12-11T08:21:27.198Z,67.93
2022-12-11T08:23:54.860Z,73.33
2022-12-11T08:26:27.772Z,73.27
2022-12-11T08:28:55.092Z,72.23
2022-12-11T08:31:22.873Z,82.20
2022-12-11T08:33:51.260Z,69.93
2022-12-11T08:36:23.085Z,77.13
2022-12-11T08:38:50.741Z,75.00
2022-12-11T08:41:27.116Z,72.53
2022-12-11T08:43:55.361Z,72.50
2022-12-11T08:46:27.950Z,71.27
2022-12-11T08:48:55.767Z,81.83
2022-12-11T08:51:24.667Z,71.47
2022-12-11T08:53:54.388Z,81.07
2022-12-11T08:56:23.769Z,81.50
2022-12-11T08:58:51.206Z,77.73
2022-12-11T09:01:26.960Z,80.13
2022-12-11T09:03:55.572Z,84.50
2022-12-11T09:06:25.469Z,83.87
2022-12-11T09:08:53.490Z,76.33
2022-12-11T09:11:24.087Z,74.77
2022-12-11T09:13:51.423Z,77.00
2022-12-11T09:16:21.450Z,86.43
2022-12-11T09:18:50.426Z,81.43
2022-12-11T09:21:20.453Z,89.33
2022-12-11T09:23:48.108Z,87.00
2022-12-11T09:26:17.938Z,85.90
2022-12-11T09:28:46.976Z,76.60
2022-12-11T09:31:18.228Z,82.53
2022-12-11T09:33:47.355Z,81.20
2022-12-11T09:36:14.476Z,76.03
2022-12-11T09:38:44.063Z,68.57
2022-12-11T09:42:12.517Z,59.27
2022-12-11T09:44:47.034Z,70.63
2022-12-11T09:47:41.008Z,79.20
2022-12-11T09:50:20.862Z,68.70
2022-12-11T09:53:21.886Z,72.03
2022-12-11T09:56:03.501Z,72.63
2022-12-11T09:59:19.094Z,68.83
2022-12-11T10:02:21.713Z,66.93
2022-12-11T10:05:19.625Z,68.70
2022-12-11T10:08:00.797Z,77.53
2022-12-11T10:11:04.287Z,61.30
2022-12-11T10:13:54.942Z,75.80
2022-12-11T10:16:48.694Z,78.33
2022-12-11T10:19:26.453Z,74.17
2022-12-11T10:21:54.762Z,79.93
2022-12-11T10:27:40.306Z,69.67
2022-12-11T10:30:24.493Z,75.80
2022-12-11T10:32:56.558Z,79.40
2022-12-11T10:35:50.358Z,88.70
2022-12-11T10:38:39.362Z,90.77
2022-12-11T10:41:13.433Z,84.50
2022-12-11T10:43:46.274Z,74.63
2022-12-11T10:46:24.962Z,76.80
2022-12-11T10:48:58.761Z,91.50
2022-12-11T10:51:36.634Z,85.03
2022-12-11T10:54:17.796Z,73.97
2022-12-11T10:56:48.593Z,74.27
2022-12-11T10:59:32.227Z,84.47
2022-12-11T11:01:59.500Z,80.50
2022-12-11T11:04:41.765Z,83.77
2022-12-11T11:07:19.786Z,76.53
2022-12-11T11:09:47.512Z,79.00
2022-12-11T11:12:27.330Z,79.10
2022-12-11T11:15:07.825Z,70.40
2022-12-11T11:17:54.269Z,82.67
2022-12-11T11:20:28.109Z,73.30
2022-12-11T11:23:02.765Z,66.90
2022-12-11T11:25:33.921Z,59.73
2022-12-11T11:28:04.986Z,65.90
2022-12-11T11:30:42.046Z,59.13
2022-12-11T11:33:19.675Z,58.97
2022-12-11T11:36:02.569Z,54.43
2022-12-11T11:38:44.958Z,60.23
2022-12-11T11:41:28.998Z,53.73
2022-12-11T11:43:59.398Z,58.47
2022-12-11T11:46:49.912Z,54.40
2022-12-11T11:49:44.592Z,51.57
2022-12-11T11:52:21.875Z,53.93
2022-12-11T11:55:10.293Z,52.27
2022-12-11T11:57:58.924Z,40.37
2022-12-11T12:00:33.377Z,35.10
2022-12-11T12:03:14.149Z,34.27
2022-12-11T12:06:19.799Z,34.77
2022-12-11T12:09:25.527Z,32.60
2022-12-11T12:12:37.331Z,30.40
2022-12-11T12:15:48.236Z,32.30
2022-12-11T12:18:34.281Z,31.47
2022-12-11T12:21:13.415Z,31.57
2022-12-11T12:24:02.716Z,30.37
2022-12-11T12:26:44.231Z,29.80
2022-12-11T12:29:53.597Z,25.27
2022-12-11T12:32:55.479Z,25.03
2022-12-11T12:35:52.995Z,26.30
2022-12-11T12:38:58.345Z,24.93
2022-12-11T12:42:26.336Z,24.67
2022-12-11T12:45:20.601Z,24.93
2022-12-11T12:47:53.208Z,18.40
2022-12-11T12:50:24.334Z,21.03
2022-12-11T12:52:53.214Z,24.67
2022-12-11T12:55:29.118Z,26.57
2022-12-11T12:58:05.285Z,24.80
2022-12-11T13:00:36.275Z,17.50
2022-12-11T13:03:29.392Z,21.93
2022-12-11T13:06:24.838Z,18.33
2022-12-11T13:08:53.901Z,20.37
2022-12-11T13:11:30.923Z,22.83
2022-12-11T13:14:28.167Z,25.87
2022-12-11T13:17:26.444Z,21.53
2022-12-11T13:20:16.368Z,23.50
2022-12-11T13:23:17.517Z,22.03
2022-12-11T13:25:53.623Z,29.00
2022-12-11T13:28:47.423Z,22.50
2022-12-11T13:31:14.587Z,23.43
2022-12-11T13:33:50.503Z,23.73
2022-12-11T13:36:25.886Z,25.03
2022-12-11T13:38:56.785Z,26.37
2022-12-11T13:41:24.775Z,24.20
2022-12-11T13:43:53.823Z,22.50
2022-12-11T13:46:30.671Z,26.03
2022-12-11T13:49:05.109Z,22.73
2022-12-11T13:51:38.008Z,22.10
2022-12-11T13:54:17.227Z,25.20
2022-12-11T13:57:25.991Z,23.33
2022-12-11T13:59:58.682Z,24.47
2022-12-11T14:02:35.399Z,23.27
2022-12-11T14:05:21.209Z,24.97
2022-12-11T14:07:51.943Z,22.07
2022-12-11T14:10:25.507Z,19.23
2022-12-11T14:13:19.229Z,22.17
2022-12-11T14:15:46.714Z,22.13
2022-12-11T14:18:19.982Z,23.47
2022-12-11T14:20:54.413Z,22.90
2022-12-11T14:23:27.404Z,22.43
2022-12-11T14:25:57.270Z,20.53
2022-12-11T14:28:27.740Z,23.80
2022-12-11T14:31:01.456Z,19.80
2022-12-11T14:33:38.764Z,18.97
2022-12-11T14:36:07.018Z,20.30
2022-12-11T14:38:37.215Z,23.90
2022-12-11T14:41:12.984Z,20.20
2022-12-11T14:43:51.484Z,19.77
2022-12-11T14:46:35.060Z,21.23
2022-12-11T14:49:22.548Z,22.87
2022-12-11T14:51:51.832Z,19.50
2022-12-11T14:54:30.826Z,18.57
2022-12-11T14:56:59.312Z,24.80
2022-12-11T14:59:32.104Z,19.23
2022-12-11T15:02:18.034Z,17.40
2022-12-11T15:05:03.278Z,19.30
2022-12-11T15:07:30.258Z,19.13
2022-12-11T15:09:57.311Z,21.90
2022-12-11T15:12:24.412Z,19.13
2022-12-11T15:15:03.665Z,21.53
2022-12-11T15:17:31.138Z,24.47
2022-12-11T15:20:09.859Z,20.43
2022-12-11T15:22:37.378Z,19.93
2022-12-11T15:25:05.967Z,19.83
2022-12-11T15:27:37.886Z,23.40
2022-12-11T15:30:41.542Z,19.17
2022-12-11T15:33:18.138Z,21.23
2022-12-11T15:35:58.031Z,22.40
2022-12-11T15:38:43.463Z,22.17
2022-12-11T15:41:15.669Z,22.53
2022-12-11T15:43:45.144Z,22.60
2022-12-11T15:46:12.337Z,23.43
2022-12-11T15:48:39.467Z,29.33
2022-12-11T15:51:06.972Z,32.70
2022-12-11T15:53:33.848Z,27.37
2022-12-11T15:56:02.346Z,22.93
2022-12-11T15:58:30.014Z,20.77
2022-12-11T16:00:57.961Z,28.70
2022-12-11T16:03:25.286Z,25.83
2022-12-11T16:05:53.267Z,22.43
2022-12-11T16:08:22.791Z,27.33
2022-12-11T16:10:52.385Z,24.17
2022-12-11T16:13:19.653Z,20.63
2022-12-11T16:15:48.916Z,20.23
2022-12-11T16:18:19.429Z,23.00
2022-12-11T16:20:47.604Z,22.97
2022-12-11T16:23:16.566Z,33.47
2022-12-11T16:25:44.957Z,21.87
2022-12-11T16:28:14.259Z,23.50
2022-12-11T16:30:44.893Z,24.97
2022-12-11T16:33:13.523Z,21.13
2022-12-11T16:35:43.067Z,23.87
2022-12-11T16:38:11.105Z,25.60
2022-12-11T16:40:38.755Z,21.13
2022-12-11T16:43:06.007Z,25.40
2022-12-11T16:45:33.287Z,26.23
2022-12-11T16:48:04.361Z,23.37
2022-12-11T16:50:32.546Z,23.67
2022-12-11T16:52:59.645Z,25.70
2022-12-11T16:55:26.602Z,23.00
2022-12-11T16:57:54.210Z,21.27
2022-12-11T17:00:21.209Z,25.77
2022-12-11T17:02:48.230Z,21.47
2022-12-11T17:05:15.615Z,24.80
2022-12-11T17:07:42.705Z,27.27
2022-12-11T17:10:10.051Z,25.37
2022-12-11T17:12:36.983Z,26.80
2022-12-11T17:15:04.240Z,26.27
2022-12-11T17:17:31.686Z,31.57
2022-12-11T17:19:58.730Z,29.63
2022-12-11T17:22:25.723Z,28.40
2022-12-11T17:24:52.623Z,26.07
2022-12-11T17:27:19.642Z,26.07
2022-12-11T17:29:49.636Z,26.17
2022-12-11T17:32:17.915Z,28.40
2022-12-11T17:34:46.299Z,29.10
2022-12-11T17:37:13.343Z,26.07
2022-12-11T17:39:40.373Z,26.60
2022-12-11T17:42:07.458Z,26.67
2022-12-11T17:44:34.545Z,28.67
2022-12-11T17:47:06.091Z,29.00
2022-12-11T17:49:36.761Z,26.10
2022-12-11T17:52:03.946Z,25.97
2022-12-11T17:54:32.765Z,27.77
2022-12-11T17:56:59.928Z,25.60
2022-12-11T17:59:27.480Z,30.80
2022-12-11T18:01:54.639Z,32.20
2022-12-11T18:04:21.617Z,28.00
2022-12-11T18:06:50.469Z,26.23
2022-12-11T18:09:17.755Z,26.30
2022-12-11T18:11:45.186Z,27.17
2022-12-11T18:14:16.927Z,29.37
2022-12-11T18:16:44.526Z,24.77
2022-12-11T18:19:12.495Z,26.63
2022-12-11T18:21:43.348Z,27.53
2022-12-11T18:24:10.455Z,32.83
2022-12-11T18:26:38.170Z,31.73
2022-12-11T18:29:05.681Z,28.93
2022-12-11T18:31:38.848Z,31.30
2022-12-11T18:34:10.571Z,31.87
2022-12-11T18:36:38.399Z,32.23
2022-12-11T18:39:05.753Z,35.03
2022-12-11T18:41:32.926Z,37.20
2022-12-11T18:44:06.642Z,32.13
2022-12-11T18:46:37.461Z,38.03
2022-12-11T18:49:04.580Z,36.63
2022-12-11T18:51:32.986Z,37.43
2022-12-11T18:54:00.867Z,31.53
2022-12-11T18:56:27.958Z,37.13
2022-12-11T18:58:55.159Z,34.27
2022-12-11T19:01:28.685Z,33.30
2022-12-11T19:04:03.594Z,35.00
2022-12-11T19:06:35.734Z,34.77
2022-12-11T19:09:04.633Z,32.90
2022-12-11T19:11:33.547Z,33.33
2022-12-11T19:14:01.041Z,30.80
2022-12-11T19:16:31.252Z,34.27
2022-12-11T19:18:59.267Z,37.17
2022-12-11T19:21:26.635Z,32.00
2022-12-11T19:23:54.646Z,36.80
2022-12-11T19:26:24.177Z,36.43
2022-12-11T19:28:52.903Z,34.40
2022-12-11T19:31:22.648Z,42.70
2022-12-11T19:33:50.014Z,40.00
2022-12-11T19:36:19.785Z,39.37
2022-12-11T19:39:02.272Z,34.07
2022-12-11T19:41:32.053Z,38.80
2022-12-11T19:44:00.241Z,34.57
2022-12-11T19:46:29.376Z,41.10
2022-12-11T19:48:58.356Z,38.63
2022-12-11T19:51:37.615Z,37.73
2022-12-11T19:54:06.862Z,38.90
2022-12-11T19:56:36.653Z,46.23
2022-12-11T19:59:07.113Z,45.00
2022-12-11T20:01:39.204Z,41.33
2022-12-11T20:04:10.698Z,40.10
2022-12-11T20:06:40.260Z,40.23
2022-12-11T20:09:11.071Z,45.53
2022-12-11T20:11:40.353Z,41.10
2022-12-11T20:14:07.499Z,38.00
2022-12-11T20:17:02.237Z,43.67
2022-12-11T20:19:21.666Z,42.73
2022-12-11T20:21:48.569Z,44.50
2022-12-11T20:24:15.542Z,46.63
2022-12-11T20:26:42.568Z,42.33
2022-12-11T20:29:09.626Z,55.07
2022-12-11T20:31:38.082Z,48.07
2022-12-11T20:34:06.134Z,43.20
2022-12-11T20:36:34.542Z,44.47
2022-12-11T20:39:02.211Z,48.30
2022-12-11T20:41:29.584Z,45.90
2022-12-11T20:43:56.631Z,51.47
2022-12-11T20:46:27.738Z,43.77
2022-12-11T20:48:58.559Z,47.00
2022-12-11T20:51:26.787Z,47.37
2022-12-11T20:53:59.283Z,51.23
2022-12-11T20:56:29.683Z,49.67
2022-12-11T20:58:59.165Z,50.80
2022-12-11T21:01:28.814Z,47.87
2022-12-11T21:03:56.780Z,56.60
2022-12-11T21:06:26.826Z,59.43
2022-12-11T21:08:54.804Z,52.57
2022-12-11T21:11:25.501Z,54.67
2022-12-11T21:13:54.700Z,51.60
2022-12-11T21:16:22.686Z,56.27
2022-12-11T21:18:50.436Z,58.27
2022-12-11T21:21:17.895Z,57.20
2022-12-11T21:23:45.370Z,58.73
2022-12-11T21:26:14.254Z,58.10
2022-12-11T21:28:41.840Z,55.10
2022-12-11T21:31:15.413Z,60.07
2022-12-11T21:33:44.319Z,52.63
2022-12-11T21:36:13.795Z,51.13
2022-12-11T21:38:44.069Z,56.40
2022-12-11T21:41:16.830Z,54.13
2022-12-11T21:44:56.647Z,53.63
2022-12-11T21:46:33.837Z,55.47
2022-12-11T21:49:00.832Z,57.33
2022-12-11T21:51:37.098Z,57.87
2022-12-11T21:54:10.572Z,61.47
2022-12-11T21:56:39.293Z,63.53
2022-12-11T21:59:06.946Z,64.97
2022-12-11T22:01:40.869Z,62.00
2022-12-11T22:04:09.984Z,63.40
2022-12-11T22:06:37.648Z,61.87
2022-12-11T22:09:05.346Z,56.60
2022-12-11T22:15:20.465Z,62.43
2022-12-11T22:17:47.625Z,63.33
2022-12-11T22:20:14.747Z,63.23
2022-12-11T22:22:41.936Z,67.53
2022-12-11T22:25:10.137Z,65.73
2022-12-11T22:27:37.648Z,61.93
2022-12-11T22:30:05.628Z,71.03
2022-12-11T22:32:46.625Z,64.93
2022-12-11T22:35:13.880Z,74.90
2022-12-11T22:37:40.892Z,65.40
2022-12-11T22:40:09.575Z,78.23
2022-12-11T22:42:37.292Z,65.30
2022-12-11T22:45:05.608Z,71.37
2022-12-11T22:47:33.902Z,73.43
2022-12-11T22:50:01.464Z,68.90
2022-12-11T22:52:28.429Z,82.97
2022-12-11T22:54:55.492Z,65.60
2022-12-11T22:57:22.707Z,64.97
2022-12-11T22:59:49.516Z,68.20
2022-12-11T23:02:16.713Z,64.97
2022-12-11T23:04:43.716Z,66.00
2022-12-11T23:07:10.681Z,63.23
2022-12-11T23:09:37.660Z,63.70
2022-12-11T23:12:04.962Z,65.33
2022-12-11T23:14:33.292Z,63.97
2022-12-11T23:17:00.576Z,66.43
2022-12-11T23:19:28.975Z,66.60
2022-12-11T23:21:56.523Z,62.77
2022-12-11T23:24:23.451Z,59.77
2022-12-11T23:26:50.431Z,57.67
2022-12-11T23:29:17.417Z,59.27
2022-12-11T23:31:44.545Z,59.37
2022-12-11T23:34:12.276Z,65.97
2022-12-11T23:36:39.438Z,59.00
2022-12-11T23:39:06.429Z,61.83
2022-12-11T23:41:33.480Z,65.97
2022-12-11T23:44:00.461Z,62.13
2022-12-11T23:46:28.381Z,58.30
2022-12-11T23:48:56.100Z,58.80
2022-12-11T23:51:25.118Z,56.20
2022-12-11T23:53:52.957Z,61.43
2022-12-11T23:56:23.109Z,56.80
2022-12-11T23:58:51.024Z,68.23
